createdAt,value
2023-04-10T00:00:00.545Z,65.75
2023-04-10T00:02:30.861Z,65.73
2023-04-10T00:05:03.834Z,65.88
2023-04-10T00:07:34.338Z,66.03
2023-04-10T00:10:04.530Z,66.48
2023-04-10T00:12:34.621Z,67.22
2023-04-10T00:15:04.742Z,66.79
2023-04-10T00:17:34.900Z,66.50
2023-04-10T00:20:08.919Z,66.50
2023-04-10T00:22:39.016Z,66.94
2023-04-10T00:25:10.112Z,67.10
2023-04-10T00:27:40.196Z,67.35
2023-04-10T00:30:11.406Z,67.21
2023-04-10T00:32:41.729Z,67.42
2023-04-10T00:35:14.782Z,67.00
2023-04-10T00:37:44.960Z,66.93
2023-04-10T00:40:15.658Z,67.27
2023-04-10T00:42:45.803Z,67.43
2023-04-10T00:45:15.927Z,67.80
2023-04-10T00:47:46.074Z,67.72
2023-04-10T00:50:19.279Z,67.45
2023-04-10T00:52:49.468Z,67.34
2023-04-10T00:55:19.612Z,67.70
2023-04-10T00:57:50.857Z,68.23
2023-04-10T01:00:21.837Z,67.94
2023-04-10T01:02:52.161Z,67.91
2023-04-10T01:05:25.709Z,68.32
2023-04-10T01:08:02.743Z,68.03
2023-04-10T01:10:39.294Z,68.44
2023-04-10T01:13:19.025Z,68.45
2023-04-10T01:15:52.578Z,68.34
2023-04-10T01:18:27.860Z,68.42
2023-04-10T01:21:01.795Z,68.55
2023-04-10T01:23:47.398Z,69.24
2023-04-10T01:26:20.037Z,68.81
2023-04-10T01:28:56.388Z,68.77
2023-04-10T01:31:32.097Z,68.66
2023-04-10T01:34:07.347Z,68.62
2023-04-10T01:36:41.252Z,68.75
2023-04-10T01:39:11.856Z,68.95
2023-04-10T01:41:45.085Z,69.28
2023-04-10T01:44:19.226Z,69.10
2023-04-10T01:46:51.880Z,68.90
2023-04-10T01:49:22.244Z,69.01
2023-04-10T01:51:54.462Z,69.20
2023-04-10T01:54:24.865Z,69.24
2023-04-10T01:56:55.091Z,69.20
2023-04-10T01:59:28.281Z,69.23
2023-04-10T02:02:00.103Z,69.21
2023-04-10T02:04:30.650Z,69.18
2023-04-10T02:07:06.598Z,68.94
2023-04-10T02:09:44.559Z,69.37
2023-04-10T02:12:20.106Z,69.41
2023-04-10T02:14:53.632Z,69.91
2023-04-10T02:17:29.719Z,69.36
2023-04-10T02:20:00.598Z,69.27
2023-04-10T02:22:31.032Z,69.20
2023-04-10T02:25:02.070Z,69.54
2023-04-10T02:27:37.315Z,69.51
2023-04-10T02:30:11.273Z,69.58
2023-04-10T02:32:42.219Z,69.80
2023-04-10T02:35:12.636Z,69.59
2023-04-10T02:37:43.016Z,69.66
2023-04-10T02:40:14.770Z,69.54
2023-04-10T02:42:53.325Z,70.05
2023-04-10T02:45:26.293Z,70.25
2023-04-10T02:47:56.458Z,70.17
2023-04-10T02:50:29.806Z,70.28
2023-04-10T02:53:00.202Z,70.36
2023-04-10T02:55:30.449Z,70.64
2023-04-10T02:58:00.593Z,70.40
2023-04-10T03:00:33.692Z,70.79
2023-04-10T03:03:23.289Z,71.15
2023-04-10T03:05:57.277Z,71.58
2023-04-10T03:08:32.705Z,71.07
2023-04-10T03:11:02.868Z,70.83
2023-04-10T03:13:32.949Z,70.58
2023-04-10T03:16:05.885Z,70.70
2023-04-10T03:18:36.236Z,70.70
2023-04-10T03:21:06.658Z,70.93
2023-04-10T03:23:36.999Z,71.23
2023-04-10T03:26:07.702Z,71.01
2023-04-10T03:28:41.647Z,70.99
2023-04-10T03:31:16.232Z,70.92
2023-04-10T03:33:48.092Z,71.00
2023-04-10T03:36:18.481Z,70.86
2023-04-10T03:38:48.582Z,70.63
2023-04-10T03:41:18.813Z,70.56
2023-04-10T03:43:49.018Z,70.75
2023-04-10T03:46:22.867Z,70.94
2023-04-10T03:48:54.375Z,71.38
2023-04-10T03:51:25.449Z,71.45
2023-04-10T03:53:56.049Z,71.31
2023-04-10T03:56:26.514Z,71.34
2023-04-10T03:58:56.819Z,71.29
2023-04-10T04:01:29.591Z,71.72
2023-04-10T04:04:04.921Z,71.83
2023-04-10T04:06:53.758Z,71.76
2023-04-10T04:09:44.016Z,71.73
2023-04-10T04:12:43.129Z,71.76
2023-04-10T04:15:26.796Z,71.64
2023-04-10T04:18:18.411Z,71.41
2023-04-10T04:20:52.773Z,71.59
2023-04-10T04:23:46.024Z,71.57
2023-04-10T04:26:29.565Z,71.82
2023-04-10T04:29:18.278Z,72.01
2023-04-10T04:32:01.885Z,71.93
2023-04-10T04:34:44.061Z,71.84
2023-04-10T04:37:23.336Z,72.24
2023-04-10T04:40:05.225Z,72.19
2023-04-10T04:42:43.216Z,72.16
2023-04-10T04:45:27.619Z,72.56
2023-04-10T04:48:18.100Z,72.41
2023-04-10T04:51:09.640Z,72.63
2023-04-10T04:53:52.033Z,72.50
2023-04-10T04:56:58.002Z,73.66
2023-04-10T04:59:48.416Z,74.44
2023-04-10T05:02:38.598Z,73.90
2023-04-10T05:05:27.295Z,73.09
2023-04-10T05:08:35.298Z,72.13
2023-04-10T05:11:12.872Z,71.92
2023-04-10T05:13:59.973Z,71.34
2023-04-10T05:17:05.196Z,71.09
2023-04-10T05:19:58.147Z,70.89
2023-04-10T05:22:48.661Z,71.58
2023-04-10T05:25:40.149Z,71.94
2023-04-10T05:28:20.111Z,71.42
2023-04-10T05:31:16.463Z,71.91
2023-04-10T05:34:01.327Z,72.04
2023-04-10T05:36:41.987Z,71.82
2023-04-10T05:39:28.817Z,71.74
2023-04-10T05:42:17.680Z,72.78
2023-04-10T05:44:53.812Z,70.31
2023-04-10T05:47:34.440Z,68.71
2023-04-10T05:50:23.316Z,67.14
2023-04-10T05:53:17.413Z,66.52
2023-04-10T05:56:06.145Z,65.76
2023-04-10T05:58:53.406Z,66.62
2023-04-10T06:01:56.300Z,68.73
2023-04-10T06:04:27.637Z,68.17
2023-04-10T06:07:01.458Z,66.85
2023-04-10T06:09:31.687Z,65.24
2023-04-10T06:12:01.940Z,65.07
2023-04-10T06:14:34.780Z,62.78
2023-04-10T06:17:04.984Z,62.32
2023-04-10T06:19:35.126Z,61.75
2023-04-10T06:22:05.298Z,60.83
2023-04-10T06:24:35.459Z,60.15
2023-04-10T06:27:05.799Z,59.50
2023-04-10T06:29:38.590Z,58.37
2023-04-10T06:32:08.969Z,57.70
2023-04-10T06:34:41.356Z,56.59
2023-04-10T06:37:12.985Z,56.08
2023-04-10T06:39:43.079Z,55.80
2023-04-10T06:42:13.193Z,56.38
2023-04-10T06:45:02.286Z,56.94
2023-04-10T06:47:32.586Z,55.04
2023-04-10T06:50:02.778Z,53.88
2023-04-10T06:52:32.976Z,53.02
2023-04-10T06:55:03.133Z,52.79
2023-04-10T06:57:33.225Z,52.13
2023-04-10T07:00:06.269Z,50.79
2023-04-10T07:02:36.436Z,50.40
2023-04-10T07:05:07.191Z,48.78
2023-04-10T07:07:37.437Z,48.70
2023-04-10T07:10:08.541Z,48.28
2023-04-10T07:12:38.661Z,46.72
2023-04-10T07:15:12.699Z,46.02
2023-04-10T07:17:42.906Z,45.53
2023-04-10T07:20:14.221Z,43.22
2023-04-10T07:22:44.335Z,43.23
2023-04-10T07:25:14.517Z,42.57
2023-04-10T07:27:44.631Z,42.06
2023-04-10T07:30:17.510Z,41.42
2023-04-10T07:32:47.783Z,41.38
2023-04-10T07:35:18.090Z,43.06
2023-04-10T07:37:51.802Z,41.90
2023-04-10T07:40:22.269Z,41.78
2023-04-10T07:42:53.920Z,41.49
2023-04-10T07:45:27.967Z,40.89
2023-04-10T07:47:59.610Z,41.10
2023-04-10T07:50:30.746Z,39.94
2023-04-10T07:53:03.709Z,38.62
2023-04-10T07:55:33.942Z,39.67
2023-04-10T07:58:04.146Z,38.45
2023-04-10T08:00:37.409Z,37.10
2023-04-10T08:03:07.987Z,36.22
2023-04-10T08:05:38.314Z,34.95
2023-04-10T08:08:08.539Z,34.05
2023-04-10T08:10:39.573Z,33.78
2023-04-10T08:13:09.790Z,32.18
2023-04-10T08:15:42.568Z,31.69
2023-04-10T08:18:12.771Z,29.64
2023-04-10T08:20:42.927Z,29.01
2023-04-10T08:23:20.484Z,27.90
2023-04-10T08:25:51.247Z,26.93
2023-04-10T08:28:22.515Z,25.76
2023-04-10T08:30:56.505Z,25.44
2023-04-10T08:33:26.817Z,24.59
2023-04-10T08:35:57.062Z,24.47
2023-04-10T08:38:27.899Z,23.76
2023-04-10T08:40:58.019Z,23.65
2023-04-10T08:43:29.093Z,23.49
2023-04-10T08:46:02.247Z,22.67
2023-04-10T08:48:38.705Z,22.37
2023-04-10T08:51:18.614Z,22.92
2023-04-10T08:53:53.998Z,23.22
2023-04-10T08:56:24.879Z,23.01
2023-04-10T08:58:55.349Z,22.87
2023-04-10T09:01:28.611Z,22.40
2023-04-10T09:03:59.764Z,21.97
2023-04-10T09:06:30.360Z,22.14
2023-04-10T09:12:04.115Z,22.08
2023-04-10T09:14:35.813Z,21.96
2023-04-10T09:17:24.825Z,22.34
2023-04-10T09:19:57.370Z,22.25
2023-04-10T09:22:34.044Z,21.95
2023-04-10T09:25:05.942Z,22.57
2023-04-10T09:27:39.544Z,22.21
2023-04-10T09:30:13.306Z,22.16
2023-04-10T09:32:47.493Z,22.42
2023-04-10T09:35:18.793Z,23.14
2023-04-10T09:37:49.286Z,23.25
2023-04-10T09:40:27.406Z,22.82
2023-04-10T09:42:58.998Z,22.60
2023-04-10T09:45:29.178Z,22.12
2023-04-10T09:48:10.731Z,21.91
2023-04-10T09:50:42.403Z,23.32
2023-04-10T09:53:12.876Z,23.66
2023-04-10T09:55:43.921Z,22.73
2023-04-10T09:58:15.133Z,22.78
2023-04-10T10:00:46.232Z,22.51
2023-04-10T10:03:21.498Z,22.15
2023-04-10T10:05:53.530Z,22.61
2023-04-10T10:08:24.189Z,21.88
2023-04-10T10:10:56.757Z,21.38
2023-04-10T10:13:29.731Z,21.31
2023-04-10T10:16:07.719Z,21.51
2023-04-10T10:18:45.747Z,21.68
2023-04-10T10:21:17.092Z,21.13
2023-04-10T10:23:47.994Z,21.70
2023-04-10T10:26:19.012Z,20.50
2023-04-10T10:28:50.128Z,20.71
2023-04-10T10:31:22.802Z,21.65
2023-04-10T10:33:57.442Z,21.48
2023-04-10T10:36:28.424Z,21.26
2023-04-10T10:39:11.858Z,20.86
2023-04-10T10:41:47.733Z,20.65
2023-04-10T10:44:24.472Z,20.66
2023-04-10T10:47:01.698Z,20.89
2023-04-10T10:50:01.971Z,20.34
2023-04-10T10:52:46.224Z,20.11
2023-04-10T10:55:35.283Z,21.66
2023-04-10T10:58:06.647Z,22.21
2023-04-10T11:01:13.005Z,22.60
2023-04-10T11:03:44.871Z,23.93
2023-04-10T11:06:19.883Z,25.16
2023-04-10T11:08:53.795Z,25.21
2023-04-10T11:11:25.620Z,26.35
2023-04-10T11:14:23.337Z,25.94
2023-04-10T11:16:53.635Z,26.08
2023-04-10T11:19:26.525Z,24.07
2023-04-10T11:22:15.720Z,22.23
2023-04-10T11:25:02.822Z,22.94
2023-04-10T11:27:45.135Z,23.13
2023-04-10T11:30:30.999Z,22.12
2023-04-10T11:33:01.698Z,22.36
2023-04-10T11:35:32.210Z,20.46
2023-04-10T11:38:15.994Z,19.68
2023-04-10T11:41:04.428Z,19.61
2023-04-10T11:43:36.131Z,18.59
2023-04-10T11:46:09.087Z,18.02
2023-04-10T11:48:39.919Z,18.25
2023-04-10T11:51:11.660Z,18.05
2023-04-10T11:53:45.221Z,17.94
2023-04-10T11:56:23.311Z,17.98
2023-04-10T11:58:55.368Z,17.30
2023-04-10T12:01:26.459Z,16.99
2023-04-10T12:03:57.312Z,17.13
2023-04-10T12:06:27.850Z,16.32
2023-04-10T12:09:00.688Z,16.21
2023-04-10T12:11:30.918Z,15.08
2023-04-10T12:14:01.157Z,15.89
2023-04-10T12:16:31.386Z,15.85
2023-04-10T12:19:01.753Z,16.44
2023-04-10T12:21:31.993Z,16.70
2023-04-10T12:24:04.854Z,15.65
2023-04-10T12:26:35.068Z,16.37
2023-04-10T12:29:06.596Z,16.54
2023-04-10T12:31:39.231Z,16.89
2023-04-10T12:34:11.382Z,16.55
2023-04-10T12:36:41.758Z,16.24
2023-04-10T12:39:27.051Z,17.10
2023-04-10T12:41:57.282Z,16.67
2023-04-10T12:44:27.585Z,16.97
2023-04-10T12:47:02.975Z,16.08
2023-04-10T12:49:33.225Z,15.36
2023-04-10T12:52:03.419Z,15.69
2023-04-10T12:54:37.604Z,15.50
2023-04-10T12:57:09.621Z,15.98
2023-04-10T12:59:39.838Z,15.11
2023-04-10T13:02:10.116Z,14.28
2023-04-10T13:04:40.688Z,14.41
2023-04-10T13:07:11.045Z,15.37
2023-04-10T13:09:44.023Z,15.84
2023-04-10T13:12:14.780Z,15.61
2023-04-10T13:14:44.985Z,15.77
2023-04-10T13:17:15.192Z,15.14
2023-04-10T13:19:45.477Z,14.68
2023-04-10T13:22:15.682Z,14.92
2023-04-10T13:24:48.646Z,14.91
2023-04-10T13:27:18.851Z,15.51
2023-04-10T13:29:49.044Z,14.95
2023-04-10T13:32:19.289Z,14.48
2023-04-10T13:34:49.510Z,14.79
2023-04-10T13:37:20.561Z,14.89
2023-04-10T13:39:53.689Z,14.55
2023-04-10T13:42:23.942Z,14.63
2023-04-10T13:44:54.166Z,14.85
2023-04-10T13:47:24.561Z,15.13
2023-04-10T13:49:54.810Z,15.52
2023-04-10T13:52:25.031Z,15.63
2023-04-10T13:54:57.870Z,15.48
2023-04-10T13:57:28.091Z,15.51
2023-04-10T13:59:58.314Z,15.69
2023-04-10T14:02:28.764Z,16.06
2023-04-10T14:04:59.044Z,15.95
2023-04-10T14:07:29.411Z,15.65
2023-04-10T14:10:02.287Z,16.07
2023-04-10T14:12:32.538Z,16.21
2023-04-10T14:15:02.775Z,15.62
2023-04-10T14:17:33.120Z,15.73
2023-04-10T14:20:03.306Z,16.52
2023-04-10T14:22:33.523Z,16.32
2023-04-10T14:25:12.945Z,16.32
2023-04-10T14:27:44.048Z,16.42
2023-04-10T14:30:15.011Z,15.98
2023-04-10T14:32:45.247Z,16.37
2023-04-10T14:35:15.729Z,16.56
2023-04-10T14:37:45.930Z,16.36
2023-04-10T14:40:18.782Z,16.35
2023-04-10T14:42:48.985Z,16.56
2023-04-10T14:45:20.010Z,16.93
2023-04-10T14:47:50.402Z,16.88
2023-04-10T14:50:20.863Z,17.22
2023-04-10T14:52:51.092Z,17.50
2023-04-10T14:55:24.987Z,17.42
2023-04-10T14:57:56.612Z,17.50
2023-04-10T15:00:29.980Z,17.58
2023-04-10T15:03:00.390Z,17.96
2023-04-10T15:05:31.211Z,18.61
2023-04-10T15:08:01.512Z,18.47
2023-04-10T15:10:35.007Z,18.36
2023-04-10T15:13:06.222Z,18.57
2023-04-10T15:15:36.480Z,18.48
2023-04-10T15:18:06.896Z,18.53
2023-04-10T15:20:37.100Z,18.76
2023-04-10T15:23:07.274Z,18.37
2023-04-10T15:25:40.223Z,19.12
2023-04-10T15:28:10.902Z,19.19
2023-04-10T15:30:41.137Z,19.05
2023-04-10T15:33:11.448Z,19.25
2023-04-10T15:35:41.659Z,19.38
2023-04-10T15:38:11.867Z,19.66
2023-04-10T15:40:44.769Z,20.64
2023-04-10T15:43:15.987Z,21.25
2023-04-10T15:45:46.776Z,22.10
2023-04-10T15:48:16.938Z,22.69
2023-04-10T15:50:47.338Z,23.54
2023-04-10T15:53:17.784Z,23.46
2023-04-10T15:55:50.669Z,24.58
2023-04-10T15:58:20.908Z,25.02
2023-04-10T16:00:51.121Z,25.77
2023-04-10T16:03:21.417Z,25.86
2023-04-10T16:05:51.745Z,26.78
2023-04-10T16:08:21.982Z,27.35
2023-04-10T16:10:54.818Z,26.90
2023-04-10T16:13:25.148Z,27.37
2023-04-10T16:15:55.468Z,27.86
2023-04-10T16:18:25.718Z,28.66
2023-04-10T16:20:55.978Z,28.92
2023-04-10T16:23:26.234Z,29.15
2023-04-10T16:25:59.096Z,29.41
2023-04-10T16:28:29.233Z,29.70
2023-04-10T16:30:59.809Z,30.37
2023-04-10T16:33:29.990Z,30.14
2023-04-10T16:36:03.151Z,30.59
2023-04-10T16:38:34.801Z,31.23
2023-04-10T16:41:10.179Z,31.51
2023-04-10T16:43:40.440Z,31.82
2023-04-10T16:46:10.882Z,32.10
2023-04-10T16:48:41.370Z,32.40
2023-04-10T16:51:12.604Z,32.53
2023-04-10T16:53:42.750Z,32.76
2023-04-10T16:56:15.661Z,32.95
2023-04-10T16:58:45.901Z,33.33
2023-04-10T17:01:19.954Z,33.30
2023-04-10T17:03:50.464Z,33.82
2023-04-10T17:06:21.360Z,34.09
2023-04-10T17:08:51.628Z,34.19
2023-04-10T17:11:24.489Z,34.36
2023-04-10T17:13:54.683Z,34.33
2023-04-10T17:16:24.986Z,34.59
2023-04-10T17:18:55.253Z,34.72
2023-04-10T17:21:27.362Z,34.71
2023-04-10T17:23:57.598Z,34.38
2023-04-10T17:26:31.025Z,34.50
2023-04-10T17:29:01.297Z,34.67
2023-04-10T17:31:32.049Z,34.25
2023-04-10T17:34:02.273Z,34.71
2023-04-10T17:36:32.742Z,34.33
2023-04-10T17:39:03.264Z,34.20
2023-04-10T17:41:36.090Z,34.41
2023-04-10T17:44:06.323Z,34.71
2023-04-10T17:46:36.597Z,34.80
2023-04-10T17:49:06.916Z,35.05
2023-04-10T17:51:37.353Z,35.33
2023-04-10T17:54:07.609Z,35.46
2023-04-10T17:56:40.479Z,35.84
2023-04-10T17:59:10.703Z,35.59
2023-04-10T18:01:41.090Z,36.14
2023-04-10T18:04:11.597Z,35.93
2023-04-10T18:06:41.834Z,35.96
2023-04-10T18:09:12.118Z,36.31
2023-04-10T18:11:45.083Z,36.03
2023-04-10T18:14:15.369Z,36.38
2023-04-10T18:16:45.613Z,36.31
2023-04-10T18:19:15.872Z,36.73
2023-04-10T18:21:46.268Z,36.68
2023-04-10T18:24:16.877Z,36.81
2023-04-10T18:26:50.916Z,36.73
2023-04-10T18:29:21.107Z,36.91
2023-04-10T18:31:51.661Z,37.21
2023-04-10T18:34:21.871Z,37.28
2023-04-10T18:36:52.080Z,37.57
2023-04-10T18:39:22.398Z,37.55
2023-04-10T18:41:57.553Z,37.48
2023-04-10T18:44:29.566Z,37.70
2023-04-10T18:47:04.355Z,37.74
2023-04-10T18:49:35.208Z,37.79
2023-04-10T18:52:05.551Z,38.03
2023-04-10T18:54:36.560Z,37.76
2023-04-10T18:57:09.533Z,37.99
2023-04-10T18:59:40.956Z,38.32
2023-04-10T19:02:11.238Z,38.26
2023-04-10T19:04:41.672Z,38.42
2023-04-10T19:07:11.855Z,38.64
2023-04-10T19:09:42.092Z,38.89
2023-04-10T19:12:14.956Z,38.88
2023-04-10T19:14:45.214Z,38.93
2023-04-10T19:17:15.424Z,38.87
2023-04-10T19:19:45.640Z,38.86
2023-04-10T19:22:16.583Z,39.03
2023-04-10T19:24:46.814Z,39.45
2023-04-10T19:27:19.632Z,39.65
2023-04-10T19:29:49.817Z,39.50
2023-04-10T19:32:19.998Z,39.73
2023-04-10T19:34:51.627Z,39.62
2023-04-10T19:37:22.232Z,40.04
2023-04-10T19:39:52.479Z,39.96
2023-04-10T19:42:25.225Z,40.25
2023-04-10T19:44:55.778Z,40.00
2023-04-10T19:47:26.112Z,39.98
2023-04-10T19:49:56.400Z,40.36
2023-04-10T19:52:26.799Z,40.56
2023-04-10T19:54:57.041Z,40.62
2023-04-10T19:57:29.980Z,40.73
2023-04-10T20:00:00.478Z,41.01
2023-04-10T20:02:31.040Z,41.38
2023-04-10T20:05:01.750Z,41.25
2023-04-10T20:07:32.153Z,41.48
2023-04-10T20:10:03.555Z,41.70
2023-04-10T20:12:36.563Z,41.88
2023-04-10T20:15:08.641Z,42.20
2023-04-10T20:17:39.215Z,42.29
2023-04-10T20:20:12.490Z,42.61
2023-04-10T20:22:43.315Z,42.71
2023-04-10T20:25:13.665Z,42.87
2023-04-10T20:27:46.450Z,43.17
2023-04-10T20:30:16.801Z,43.15
2023-04-10T20:32:47.311Z,43.33
2023-04-10T20:35:17.688Z,43.43
2023-04-10T20:37:47.898Z,43.45
2023-04-10T20:40:18.195Z,43.49
2023-04-10T20:42:52.970Z,43.59
2023-04-10T20:45:23.215Z,43.89
2023-04-10T20:47:53.502Z,43.89
2023-04-10T20:50:23.777Z,43.80
2023-04-10T20:52:54.004Z,43.83
2023-04-10T20:55:24.212Z,44.08
2023-04-10T20:57:58.241Z,43.99
2023-04-10T21:00:31.006Z,44.25
2023-04-10T21:03:01.434Z,44.29
2023-04-10T21:05:31.744Z,44.42
2023-04-10T21:08:02.038Z,44.39
2023-04-10T21:10:32.478Z,44.60
2023-04-10T21:13:05.750Z,44.61
2023-04-10T21:15:35.961Z,44.68
2023-04-10T21:18:06.514Z,44.64
2023-04-10T21:20:36.961Z,44.85
2023-04-10T21:23:07.207Z,45.21
2023-04-10T21:25:38.889Z,45.04
2023-04-10T21:28:11.744Z,44.82
2023-04-10T21:30:42.006Z,45.22
2023-04-10T21:33:12.225Z,45.17
2023-04-10T21:35:45.429Z,45.40
2023-04-10T21:38:16.018Z,45.60
2023-04-10T21:40:53.436Z,45.21
2023-04-10T21:43:26.271Z,45.56
2023-04-10T21:45:56.689Z,45.39
2023-04-10T21:48:26.969Z,45.35
2023-04-10T21:50:57.348Z,45.42
2023-04-10T21:53:27.536Z,45.11
2023-04-10T21:55:57.761Z,45.51
2023-04-10T21:58:32.435Z,45.30
2023-04-10T22:01:03.594Z,45.02
2023-04-10T22:03:34.092Z,45.20
2023-04-10T22:06:04.417Z,45.19
2023-04-10T22:08:34.637Z,45.37
2023-04-10T22:11:04.843Z,45.27
2023-04-10T22:13:37.693Z,45.21
2023-04-10T22:16:08.364Z,45.33
2023-04-10T22:18:38.613Z,45.19
2023-04-10T22:21:09.168Z,45.23
2023-04-10T22:23:39.356Z,45.31
2023-04-10T22:26:10.116Z,45.40
2023-04-10T22:28:42.989Z,45.51
2023-04-10T22:31:17.705Z,45.73
2023-04-10T22:33:49.409Z,45.97
2023-04-10T22:36:19.598Z,45.99
2023-04-10T22:38:49.774Z,46.12
2023-04-10T22:41:19.994Z,46.19
2023-04-10T22:43:53.061Z,46.11
2023-04-10T22:46:23.328Z,46.37
2023-04-10T22:48:53.806Z,46.31
2023-04-10T22:51:24.147Z,46.42
2023-04-10T22:53:54.554Z,46.84
2023-04-10T22:56:26.726Z,46.79
2023-04-10T22:58:59.524Z,46.86
2023-04-10T23:01:30.271Z,46.96
2023-04-10T23:04:00.482Z,46.97
2023-04-10T23:06:32.028Z,47.64
2023-04-10T23:09:02.238Z,47.50
2023-04-10T23:11:33.411Z,47.57
2023-04-10T23:14:06.305Z,47.46
2023-04-10T23:16:36.498Z,47.01
2023-04-10T23:19:06.653Z,47.54
2023-04-10T23:21:36.858Z,47.21
2023-04-10T23:24:07.431Z,47.40
2023-04-10T23:26:37.596Z,47.25
2023-04-10T23:29:10.349Z,47.26
2023-04-10T23:31:40.703Z,46.98
2023-04-10T23:34:11.087Z,47.04
2023-04-10T23:36:41.384Z,46.90
2023-04-10T23:39:11.701Z,46.92
2023-04-10T23:41:41.976Z,46.55
2023-04-10T23:44:14.901Z,46.66
2023-04-10T23:46:45.056Z,46.55
2023-04-10T23:49:15.324Z,46.68
2023-04-10T23:51:45.497Z,46.48
2023-04-10T23:54:16.006Z,46.11
2023-04-10T23:56:46.167Z,46.10
2023-04-10T23:59:19.336Z,45.53
